createdAt,value
2023-04-15T00:00:37.887Z,21.90
2023-04-15T00:07:03.044Z,19.90
2023-04-15T00:12:43.329Z,19.90
2023-04-15T00:18:32.418Z,25.10
2023-04-15T00:24:24.892Z,22.10
2023-04-15T00:29:44.109Z,24.50
2023-04-15T00:34:52.175Z,25.60
2023-04-15T00:40:28.327Z,29.40
2023-04-15T00:46:06.069Z,23.70
2023-04-15T00:52:28.535Z,24.60
2023-04-15T00:58:18.354Z,26.10
2023-04-15T01:03:58.321Z,22.90
2023-04-15T01:10:39.238Z,22.30
2023-04-15T01:16:15.103Z,20.50
2023-04-15T01:21:34.925Z,16.60
2023-04-15T01:27:23.226Z,14.20
2023-04-15T01:33:37.163Z,15.20
2023-04-15T01:39:58.018Z,10.90
2023-04-15T01:45:26.422Z,12.30
2023-04-15T01:50:57.270Z,12.50
2023-04-15T01:56:22.259Z,9.90
2023-04-15T02:01:45.022Z,8.70
2023-04-15T02:07:45.274Z,12.40
2023-04-15T02:12:53.608Z,11.00
2023-04-15T02:18:24.256Z,12.80
2023-04-15T02:23:43.465Z,12.20
2023-04-15T02:29:33.796Z,13.00
2023-04-15T02:35:09.159Z,16.50
2023-04-15T02:40:59.097Z,13.50
2023-04-15T02:46:33.976Z,20.60
2023-04-15T02:51:57.620Z,19.20
2023-04-15T02:57:50.240Z,21.50
2023-04-15T03:04:13.671Z,23.00
2023-04-15T03:10:54.919Z,21.00
2023-04-15T03:17:42.992Z,20.30
2023-04-15T03:24:12.806Z,21.90
2023-04-15T03:30:31.195Z,22.00
2023-04-15T03:37:01.828Z,21.20
2023-04-15T03:44:05.640Z,21.60
2023-04-15T03:49:46.234Z,23.50
2023-04-15T03:55:04.306Z,18.30
2023-04-15T04:00:34.325Z,20.70
2023-04-15T04:06:32.193Z,18.70
2023-04-15T04:11:50.161Z,20.20
2023-04-15T04:18:13.444Z,20.80
2023-04-15T04:23:40.847Z,15.40
2023-04-15T04:29:46.446Z,18.40
2023-04-15T04:35:50.808Z,20.20
2023-04-15T04:43:02.428Z,23.90
2023-04-15T04:48:30.968Z,19.00
2023-04-15T04:54:40.082Z,20.30
2023-04-15T05:00:45.476Z,22.70
2023-04-15T05:05:55.871Z,21.30
2023-04-15T05:11:23.048Z,22.00
2023-04-15T05:17:10.303Z,19.90
2023-04-15T05:23:27.263Z,24.10
2023-04-15T05:29:04.465Z,22.70
2023-04-15T05:35:06.532Z,21.90
2023-04-15T05:41:45.184Z,22.10
2023-04-15T05:48:04.706Z,20.80
2023-04-15T05:53:31.480Z,19.10
2023-04-15T05:59:51.661Z,16.80
2023-04-15T06:05:25.567Z,15.30
2023-04-15T06:10:35.972Z,13.30
2023-04-15T06:16:22.628Z,13.50
2023-04-15T06:21:36.026Z,15.30
2023-04-15T06:26:52.930Z,14.30
2023-04-15T06:32:02.604Z,13.90
2023-04-15T06:37:15.194Z,12.40
2023-04-15T06:42:21.572Z,11.50
2023-04-15T06:47:51.656Z,13.60
2023-04-15T06:53:07.299Z,8.00
2023-04-15T06:58:41.248Z,10.80
2023-04-15T07:04:14.535Z,10.40
2023-04-15T07:09:17.843Z,8.90
2023-04-15T07:14:26.856Z,9.60
2023-04-15T07:19:43.065Z,8.00
2023-04-15T07:25:00.923Z,10.90
2023-04-15T07:30:12.088Z,10.50
2023-04-15T07:40:51.254Z,10.90
2023-04-15T07:45:58.731Z,7.10
2023-04-15T07:51:08.246Z,9.60
2023-04-15T07:56:17.985Z,11.90
2023-04-15T08:02:14.990Z,8.40
2023-04-15T08:07:37.137Z,9.10
2023-04-15T08:13:17.230Z,8.30
2023-04-15T08:18:31.448Z,7.00
2023-04-15T08:23:47.059Z,9.70
2023-04-15T08:28:52.451Z,7.80
2023-04-15T08:33:57.085Z,8.60
2023-04-15T08:39:13.466Z,7.70
2023-04-15T08:44:18.122Z,12.30
2023-04-15T08:49:26.044Z,10.30
2023-04-15T08:54:30.593Z,8.40
2023-04-15T08:59:44.252Z,9.00
2023-04-15T09:05:16.929Z,6.40
2023-04-15T09:10:22.000Z,7.80
2023-04-15T09:15:36.219Z,4.70
2023-04-15T09:21:28.996Z,8.70
2023-04-15T09:26:43.829Z,8.00
2023-04-15T09:31:53.568Z,6.30
2023-04-15T09:36:56.568Z,5.90
2023-04-15T09:42:13.513Z,3.60
2023-04-15T09:47:40.720Z,2.00
2023-04-15T09:52:47.131Z,2.40
2023-04-15T09:58:51.788Z,1.80
2023-04-15T10:05:24.055Z,2.60
2023-04-15T10:11:45.165Z,4.20
2023-04-15T10:17:12.674Z,2.40
2023-04-15T10:22:18.294Z,9.20
2023-04-15T10:27:39.011Z,3.10
2023-04-15T10:32:45.598Z,8.10
2023-04-15T10:42:58.395Z,4.50
2023-04-15T10:48:12.441Z,10.80
2023-04-15T10:53:28.366Z,5.20
2023-04-15T10:58:41.746Z,5.10
2023-04-15T11:03:43.908Z,3.90
2023-04-15T11:08:59.478Z,7.90
2023-04-15T11:14:05.232Z,4.70
2023-04-15T11:19:09.890Z,7.50
2023-04-15T11:24:26.881Z,4.90
2023-04-15T11:29:37.541Z,6.10
2023-04-15T11:34:48.444Z,8.60
2023-04-15T11:39:50.736Z,7.00
2023-04-15T11:45:16.190Z,6.50
2023-04-15T11:50:23.197Z,7.90
2023-04-15T11:55:28.902Z,7.10
2023-04-15T12:00:31.219Z,6.40
2023-04-15T12:05:36.022Z,4.60
2023-04-15T12:10:37.953Z,4.60
2023-04-15T12:15:44.747Z,7.70
2023-04-15T12:20:49.490Z,6.40
2023-04-15T12:25:54.017Z,6.20
2023-04-15T12:31:13.299Z,7.30
2023-04-15T12:36:23.448Z,4.10
2023-04-15T12:41:29.956Z,5.80
2023-04-15T12:46:57.207Z,6.10
2023-04-15T12:52:34.584Z,5.30
2023-04-15T12:58:02.129Z,5.70
2023-04-15T13:03:06.728Z,5.80
2023-04-15T13:08:18.686Z,3.00
2023-04-15T13:13:40.604Z,4.40
2023-04-15T13:19:09.310Z,4.20
2023-04-15T13:24:19.728Z,3.30
2023-04-15T13:29:27.109Z,3.40
2023-04-15T13:34:41.546Z,5.60
2023-04-15T13:39:46.390Z,3.20
2023-04-15T13:45:13.351Z,4.30
2023-04-15T13:50:21.250Z,4.40
2023-04-15T13:55:38.244Z,4.90
2023-04-15T14:00:40.699Z,4.70
2023-04-15T14:05:47.618Z,5.20
2023-04-15T14:10:49.956Z,4.60
2023-04-15T14:16:00.463Z,7.40
2023-04-15T14:21:10.844Z,6.90
2023-04-15T14:26:15.028Z,9.30
2023-04-15T14:31:21.533Z,9.30
2023-04-15T14:36:33.683Z,6.90
2023-04-15T14:41:38.088Z,6.50
2023-04-15T14:46:58.381Z,6.70
2023-04-15T14:53:00.640Z,9.80
2023-04-15T14:58:16.013Z,6.30
2023-04-15T15:03:18.499Z,8.60
2023-04-15T15:08:23.794Z,9.10
2023-04-15T15:13:38.687Z,9.60
2023-04-15T15:18:43.538Z,10.50
2023-04-15T15:23:59.935Z,8.10
2023-04-15T15:29:04.853Z,6.90
2023-04-15T15:34:12.580Z,9.30
2023-04-15T15:39:40.726Z,11.00
2023-04-15T15:44:45.427Z,10.70
2023-04-15T15:49:49.877Z,15.90
2023-04-15T15:55:08.268Z,15.60
2023-04-15T16:00:16.697Z,21.90
2023-04-15T16:05:19.473Z,10.10
2023-04-15T16:11:21.021Z,14.00
2023-04-15T16:17:48.962Z,13.80
2023-04-15T16:24:39.668Z,14.30
2023-04-15T16:31:53.468Z,13.70
2023-04-15T16:38:00.881Z,16.60
2023-04-15T16:43:32.274Z,16.80
2023-04-15T16:48:44.685Z,12.40
2023-04-15T17:00:22.162Z,12.20
2023-04-15T17:06:11.196Z,12.60
2023-04-15T17:12:49.244Z,18.20
2023-04-15T17:19:03.593Z,12.30
2023-04-15T17:25:33.787Z,12.30
2023-04-15T17:32:29.402Z,11.60
2023-04-15T17:39:08.485Z,15.40
2023-04-15T17:45:26.872Z,12.90
2023-04-15T17:51:53.462Z,9.80
2023-04-15T17:58:14.052Z,11.20
2023-04-15T18:05:04.578Z,28.90
2023-04-15T18:12:08.417Z,26.50
2023-04-15T18:18:29.866Z,24.30
2023-04-15T18:25:03.328Z,21.00
2023-04-15T18:31:10.520Z,23.70
2023-04-15T18:37:11.558Z,21.10
2023-04-15T18:43:56.359Z,22.30
2023-04-15T18:50:59.169Z,24.90
2023-04-15T18:57:34.896Z,20.60
2023-04-15T19:03:58.015Z,20.50
2023-04-15T19:10:13.651Z,20.80
2023-04-15T19:16:42.115Z,18.10
2023-04-15T19:22:38.655Z,15.90
2023-04-15T19:27:59.968Z,13.70
2023-04-15T19:34:08.425Z,38.70
2023-04-15T19:40:18.227Z,33.00
2023-04-15T19:46:41.744Z,32.70
2023-04-15T19:52:36.400Z,27.20
2023-04-15T19:58:38.101Z,28.70
2023-04-15T20:04:46.494Z,28.00
2023-04-15T20:12:05.105Z,26.00
2023-04-15T20:24:41.154Z,27.00
2023-04-15T20:30:46.562Z,23.60
2023-04-15T20:37:49.187Z,23.30
2023-04-15T20:44:48.882Z,23.60
2023-04-15T20:51:43.791Z,20.40
2023-04-15T20:58:46.600Z,19.50
2023-04-15T21:05:32.657Z,19.80
2023-04-15T21:12:15.474Z,23.10
2023-04-15T21:19:18.277Z,21.10
2023-04-15T21:26:22.315Z,22.00
2023-04-15T21:33:25.138Z,22.10
2023-04-15T21:40:28.237Z,41.80
2023-04-15T21:47:30.786Z,42.60
2023-04-15T21:54:33.763Z,41.30
2023-04-15T22:01:31.598Z,45.90
2023-04-15T22:08:44.513Z,42.60
2023-04-15T22:16:01.912Z,50.40
2023-04-15T22:23:10.656Z,43.70
2023-04-15T22:30:16.110Z,41.10
2023-04-15T22:37:19.147Z,39.40
2023-04-15T22:44:25.912Z,38.30
2023-04-15T22:51:18.698Z,36.90
2023-04-15T22:58:07.883Z,32.40
2023-04-15T23:05:12.918Z,34.80
2023-04-15T23:12:21.640Z,32.10
2023-04-15T23:19:24.501Z,33.80
2023-04-15T23:26:10.310Z,32.00
2023-04-15T23:33:04.183Z,32.20
2023-04-15T23:40:07.962Z,29.90
2023-04-15T23:47:17.817Z,27.00
2023-04-15T23:54:20.769Z,26.40
